x

Fripp Nearshore (frp 2) (41033) Weather Station

9:08pm - Tue 30th Aug 2016 All times are EDT. -4 hours from GMT.

  • Wind
    16mph, 20mph gusts
  • Sea Temp 85°f
  • Air Temp 82°f
  • Sea Pressure 1014.8mb
  • Fripp Nearshore (frp 2)
  • Fripp Nearshore (frp 2)

More Historic Weather Station data

Upgrade to MSW Pro to gain access to the past 30 days of data for over 8000 Wavebouys and Weather Stations around the globe.

Join Pro

Comparision Forecast

View Surf forecast
   
Tue 08/30 9:08pm 16 20 mph 1014.8mb 85f 82f
8:08pm 13 18 mph 1014.5mb 85f 81f
7:08pm 13 18 mph 1014.4mb 85f 82f
6:08pm 11 16 mph 1014.7mb 85f 81f
5:08pm 11 16 mph 1015.1mb 85f 80f
4:08pm 11 16 mph 1015.3mb 85f 81f
3:08pm 13 16 mph 1015.4mb 85f 81f
2:08pm 11 18 mph 1015.6mb 85f 81f
1:08pm 16 20 mph 1016.9mb 85f 80f
12:08pm 13 18 mph 1018.1mb 85f 79f
11:08am 9 16 mph 1018.5mb 85f 77f
10:08am 11 13 mph 1017.7mb 85f 81f
9:08am 16 18 mph 1016.8mb 85f 80f
8:08am 13 18 mph 1016.7mb 85f 79f
7:08am 7 11 mph 1016mb 85f 78f
6:08am 13 29 mph 1016.2mb 85f 79f
5:08am 7 9 mph 1015.3mb 85f 78f
4:08am 11 16 mph 1015.2mb 85f 81f
3:08am 16 22 mph 1015.5mb 85f 80f
2:08am 9 13 mph 1016.1mb 85f 83f
1:08am 11 16 mph 1016.3mb 85f 83f
12:08am 16 18 mph 1016.4mb 85f 83f
Mon 08/29 11:08pm 13 18 mph 1016.7mb 85f 83f
10:08pm 16 20 mph 1016.6mb 85f 83f
9:08pm 16 22 mph 1016.2mb 86f 83f
8:08pm 16 18 mph 1016mb 86f 83f
7:08pm 13 20 mph 1015.3mb 86f 83f
6:08pm 13 18 mph 1016.1mb 86f 83f
5:08pm 16 18 mph 1016.7mb 86f 83f
4:08pm 11 16 mph 1016.1mb 86f 83f
3:08pm 11 13 mph 1016.7mb 86f 83f
2:08pm 11 16 mph 1017.4mb 85f 83f
1:08pm 13 18 mph 1017.4mb 85f 82f
12:08pm 13 18 mph 1017.9mb 85f 82f
11:08am 16 20 mph 1017.7mb 85f 81f
10:08am 13 18 mph 1017.8mb 85f 81f
9:08am 16 18 mph 1017.4mb 85f 81f
8:08am 13 18 mph 1017.3mb 85f 80f
7:08am 16 20 mph 1016.7mb 86f 81f
6:08am 16 20 mph 1016.1mb 86f 81f
5:08am 16 20 mph 1015.7mb 86f 82f
4:08am 13 18 mph 1016mb 86f 83f
3:08am 13 18 mph 1016.1mb 86f 83f
2:08am 16 20 mph 1016.6mb 85f 82f
1:08am 13 20 mph 1017.1mb 85f 83f
12:08am 13 18 mph 1017.4mb 85f 83f
Sun 08/28 11:08pm 13 20 mph 1017.8mb 86f 84f
10:08pm 16 22 mph 1017.2mb 86f 84f
9:08pm 18 22 mph 1016.6mb 86f 84f
8:08pm 20 25 mph 1016.3mb 86f 84f
7:08pm 16 22 mph 1015.9mb 86f 84f
6:08pm 16 20 mph 1015.9mb 86f 84f
5:08pm 16 20 mph 1016.6mb 86f 84f
4:08pm 13 18 mph 1016.7mb 86f 83f
3:08pm 16 22 mph 1017.3mb 86f 84f
2:08pm 16 20 mph 1018.2mb 86f 84f
1:08pm 16 20 mph 1018.6mb 86f 84f
12:08pm 16 22 mph 1018.7mb 85f 84f
11:08am 13 18 mph 1019mb 86f 84f
10:08am 16 20 mph 1018.9mb 86f 84f
9:08am 16 22 mph 1018.6mb 86f 84f
8:08am 13 20 mph 1018.3mb 86f 84f
7:08am 13 18 mph 1017.7mb 86f 83f
6:08am 16 22 mph 1017mb 86f 83f
5:08am 16 20 mph 1016.9mb 86f 83f
4:08am 13 18 mph 1017.2mb 86f 83f
3:08am 13 18 mph 1017mb 86f 83f
2:08am 13 18 mph 1017.2mb 86f 83f
1:08am 13 18 mph 1017.7mb 86f 84f
12:08am 16 20 mph 1018.1mb 86f 83f
Sat 08/27 11:08pm 16 20 mph 1018.1mb 86f 83f
10:08pm 13 18 mph 1018.2mb 86f 83f
9:08pm 13 18 mph 1017.3mb 86f 83f
8:08pm 13 20 mph 1016.8mb 86f 83f
7:08pm 16 22 mph 1015.9mb 86f 84f
6:08pm 18 22 mph 1016mb 86f 84f
5:08pm 18 20 mph 1016.4mb 86f 84f
4:08pm 16 20 mph 1016.8mb 86f 84f
3:08pm 13 20 mph 1017.2mb 86f 84f
2:08pm 16 22 mph 1017.9mb 86f 83f
1:08pm 18 25 mph 1017.7mb 86f 83f
12:08pm 18 27 mph 1018.1mb 86f 83f
11:08am 18 27 mph 1018.3mb 85f 83f
10:08am 13 20 mph 1018.1mb 86f 83f
9:08am 13 20 mph 1017.6mb 86f 82f
8:08am 16 20 mph 1017.3mb 86f 82f
7:08am 13 18 mph 1016.8mb 86f 82f
6:08am 11 13 mph 1016.4mb 86f 82f
5:08am 11 13 mph 1016.4mb 86f 82f
4:08am 9 13 mph 1016.2mb 86f 82f
3:08am 9 11 mph 1016.8mb 86f 82f